Time;durP1;ratioP1;P1;durP2;ratioP2;P2;SDS_P1;SDS_P2;PMS_P1;PMS_P2;Temp;Humidity;BMP_temperature;BMP_pressure;BME280_temperature;BME280_humidity;BME280_pressure;Samples;Min_cycle;Max_cycle;Signal;HPM_P1;HPM_P2
2021/09/28 00:01:08;;;;;;;20.10;11.55;;;;;;;17.08;97.03;98350.13;4958101;28;20137;-59
2021/09/28 00:03:34;;;;;;;17.33;10.65;;;;;;;17.11;97.42;98357.84;4956880;28;20459;-58
2021/09/28 00:06:08;;;;;;;15.75;9.77;;;;;;;17.47;94.36;98353.00;4953624;28;20053;-61
2021/09/28 00:08:34;;;;;;;24.55;11.57;;;;;;;17.01;97.51;98353.25;4953912;28;20030;-59
2021/09/28 00:10:59;;;;;;;18.63;11.13;;;;;;;17.03;97.12;98354.00;4952801;28;20046;-58
2021/09/28 00:13:25;;;;;;;20.08;10.60;;;;;;;17.19;97.26;98353.91;4954855;28;20019;-60
2021/09/28 00:15:50;;;;;;;16.25;10.25;;;;;;;17.40;94.66;98349.88;4938521;28;20046;-60
2021/09/28 00:18:15;;;;;;;18.00;11.32;;;;;;;16.80;98.27;98348.31;4953877;28;20129;-59
2021/09/28 00:20:41;;;;;;;17.23;10.80;;;;;;;16.57;99.74;98344.44;4955604;28;20043;-60
2021/09/28 00:23:13;;;;;;;17.63;10.52;;;;;;;16.85;97.79;98346.25;4957036;28;20031;-59
2021/09/28 00:25:39;;;;;;;24.10;10.05;;;;;;;16.76;98.14;98347.66;4954264;28;20051;-60
2021/09/28 00:28:04;;;;;;;16.42;9.77;;;;;;;16.82;97.18;98342.94;4954345;28;20061;-62
2021/09/28 00:30:29;;;;;;;17.83;8.75;;;;;;;16.85;96.33;98351.53;4954856;28;20067;-60
2021/09/28 00:33:11;;;;;;;16.00;9.35;;;;;;;16.79;95.75;98346.63;4940654;28;20043;-60
2021/09/28 00:35:37;;;;;;;15.90;9.30;;;;;;;16.89;94.56;98346.91;4953238;28;20137;-60
2021/09/28 00:38:03;;;;;;;17.50;9.80;;;;;;;16.55;96.92;98355.03;4952935;28;20031;-60
2021/09/28 00:40:30;;;;;;;14.65;8.52;;;;;;;16.92;94.57;98355.47;4955042;28;20031;-60
2021/09/28 00:43:11;;;;;;;17.25;9.98;;;;;;;16.61;96.29;98355.63;4955660;28;20516;-61
2021/09/28 00:45:42;;;;;;;18.25;10.55;;;;;;;16.31;98.22;98360.00;4931904;28;20636;-60
2021/09/28 00:48:08;;;;;;;19.58;11.07;;;;;;;16.09;99.90;98356.91;4952912;28;20646;-59
2021/09/28 00:50:33;;;;;;;23.40;11.20;;;;;;;16.48;96.51;98358.16;4953042;28;20049;-60
2021/09/28 00:52:59;;;;;;;23.50;11.25;;;;;;;16.22;98.77;98365.78;4954568;28;20031;-60
2021/09/28 00:55:43;;;;;;;18.90;11.43;;;;;;;16.15;98.79;98361.81;4953110;28;20084;-60
2021/09/28 00:58:08;;;;;;;20.25;10.80;;;;;;;16.09;98.98;98362.19;4955776;28;20031;-60
2021/09/28 01:00:34;;;;;;;21.33;11.32;;;;;;;16.09;99.43;98367.44;4952837;28;20069;-59
2021/09/28 01:03:00;;;;;;;18.75;10.00;;;;;;;16.44;96.51;98367.16;4954003;28;20073;-59
2021/09/28 01:05:28;;;;;;;20.02;10.38;;;;;;;16.34;97.13;98362.44;4953150;28;20085;-61
2021/09/28 01:07:54;;;;;;;14.90;9.25;;;;;;;16.45;96.39;98368.84;4954616;28;20575;-61
2021/09/28 01:10:19;;;;;;;14.85;9.70;;;;;;;16.59;94.30;98366.25;4954683;28;20065;-59
2021/09/28 01:12:44;;;;;;;23.98;10.55;;;;;;;16.06;97.17;98373.72;4953089;28;20044;-59
2021/09/28 01:15:13;;;;;;;17.67;10.45;;;;;;;16.24;95.79;98369.19;4955838;28;20540;-61
2021/09/28 01:17:44;;;;;;;15.10;8.98;;;;;;;16.55;94.28;98364.75;4956143;28;20189;-59
2021/09/28 01:20:10;;;;;;;17.58;10.27;;;;;;;16.19;95.68;98365.97;4955879;28;20031;-60
2021/09/28 01:22:35;;;;;;;19.40;10.02;;;;;;;15.89;97.10;98366.78;4953600;28;20045;-60
2021/09/28 01:25:01;;;;;;;15.60;9.43;;;;;;;15.94;97.22;98364.75;4952788;28;21149;-60
2021/09/28 01:27:26;;;;;;;21.17;9.35;;;;;;;15.74;98.20;98367.66;4952736;28;20034;-60
2021/09/28 01:29:52;;;;;;;20.30;10.15;;;;;;;15.94;96.89;98364.75;4952578;28;20034;-59
2021/09/28 01:32:17;;;;;;;20.90;9.32;;;;;;;15.89;96.69;98355.44;4953545;28;20863;-59
2021/09/28 01:34:42;;;;;;;15.60;9.38;;;;;;;15.94;97.16;98354.22;4951351;28;20118;-58
2021/09/28 01:37:08;;;;;;;15.57;9.00;;;;;;;16.26;94.77;98351.50;4952800;28;20031;-61
2021/09/28 01:39:33;;;;;;;16.85;9.68;;;;;;;16.20;94.78;98354.50;4956954;28;20049;-58
2021/09/28 01:41:59;;;;;;;11.32;7.25;;;;;;;16.83;93.66;98357.84;4954533;28;20031;-61
2021/09/28 01:44:24;;;;;;;15.63;9.10;;;;;;;15.84;96.48;98357.47;4958971;28;20034;-59
2021/09/28 01:46:51;;;;;;;18.77;9.55;;;;;;;16.21;94.34;98358.84;4959011;28;20138;-60
2021/09/28 01:49:20;;;;;;;16.85;8.32;;;;;;;16.33;95.87;98366.00;4941026;28;20094;-59
2021/09/28 01:51:45;;;;;;;11.27;8.07;;;;;;;16.60;93.76;98383.75;4940319;28;20041;-61
2021/09/28 01:54:12;;;;;;;12.23;7.00;;;;;;;16.29;98.60;98398.72;4958955;28;20035;-59
2021/09/28 01:56:38;;;;;;;12.25;7.07;;;;;;;15.47;98.09;98399.78;4958374;28;20039;-58
2021/09/28 01:59:05;;;;;;;52.25;10.32;;;;;;;15.68;98.55;98404.78;4958947;28;20096;-59
2021/09/28 02:01:31;;;;;;;21.63;9.20;;;;;;;15.63;99.59;98405.03;4954615;28;20042;-59
2021/09/28 02:03:56;;;;;;;45.15;12.10;;;;;;;16.11;97.66;98402.41;4928512;28;20019;-59
2021/09/28 02:06:36;;;;;;;22.80;10.80;;;;;;;16.64;92.02;98406.34;4953917;28;20053;-58
2021/09/28 02:09:02;;;;;;;21.35;11.02;;;;;;;16.45;95.14;98400.44;4941718;28;20065;-59
2021/09/28 02:11:31;;;;;;;24.88;11.00;;;;;;;16.36;94.24;98397.41;4954492;28;20046;-58
2021/09/28 02:13:58;;;;;;;23.67;11.45;;;;;;;16.26;96.50;98400.69;4958023;28;20085;-58
2021/09/28 02:16:23;;;;;;;19.73;11.70;;;;;;;16.58;94.51;98404.06;4956923;28;20050;-60
2021/09/28 02:18:48;;;;;;;18.30;9.73;;;;;;;16.83;92.36;98406.09;4957688;28;20035;-60
2021/09/28 02:21:14;;;;;;;12.18;7.75;;;;;;;16.91;93.55;98410.94;4956370;28;20052;-58
2021/09/28 02:23:39;;;;;;;20.15;9.93;;;;;;;16.53;92.94;98420.13;4956820;28;20034;-61
2021/09/28 02:26:05;;;;;;;13.07;8.35;;;;;;;16.63;93.98;98425.69;4952232;28;20878;-59
2021/09/28 02:28:33;;;;;;;15.68;8.18;;;;;;;16.71;92.00;98418.19;4955391;28;20734;-60
2021/09/28 02:30:59;;;;;;;14.13;9.30;;;;;;;16.54;93.82;98427.09;4957705;28;20039;-58
2021/09/28 02:33:24;;;;;;;17.05;9.75;;;;;;;16.56;93.50;98417.31;4956874;28;20039;-59
2021/09/28 02:35:49;;;;;;;16.52;8.60;;;;;;;16.72;93.66;98421.66;4954633;28;20038;-60
2021/09/28 02:38:15;;;;;;;17.45;9.57;;;;;;;16.34;95.13;98425.63;4956391;28;20031;-59
2021/09/28 02:40:40;;;;;;;13.95;9.30;;;;;;;16.67;95.78;98432.50;4955709;28;20054;-62
2021/09/28 02:43:06;;;;;;;15.38;9.07;;;;;;;16.58;95.69;98431.25;4955683;28;20026;-61
2021/09/28 02:45:31;;;;;;;12.80;8.50;;;;;;;16.61;95.54;98421.47;4955204;28;20122;-59
2021/09/28 02:47:56;;;;;;;12.07;8.13;;;;;;;17.19;95.90;98432.97;4955931;28;20023;-62
2021/09/28 02:50:22;;;;;;;13.13;8.80;;;;;;;17.44;91.93;98438.44;4955176;28;20038;-60
2021/09/28 02:52:47;;;;;;;16.52;8.10;;;;;;;17.26;91.22;98442.16;4942522;28;20121;-61
2021/09/28 02:55:13;;;;;;;10.43;6.63;;;;;;;17.28;94.75;98437.69;4955621;28;20683;-62
2021/09/28 02:57:38;;;;;;;13.98;7.25;;;;;;;17.41;91.14;98443.03;4956693;28;20092;-59
2021/09/28 03:00:06;;;;;;;12.07;6.30;;;;;;;17.48;92.49;98439.94;4955460;28;20142;-61
2021/09/28 03:02:31;;;;;;;9.07;5.38;;;;;;;17.07;93.28;98445.09;4956682;28;20039;-61
2021/09/28 03:04:56;;;;;;;9.02;5.13;;;;;;;17.13;93.07;98450.84;4937609;28;20035;-59
2021/09/28 03:07:22;;;;;;;10.45;4.80;;;;;;;17.77;88.91;98453.06;4955554;28;20035;-62
2021/09/28 03:09:47;;;;;;;9.43;4.57;;;;;;;17.69;88.83;98461.47;4952697;28;20026;-60
2021/09/28 03:12:12;;;;;;;6.97;3.72;;;;;;;17.87;88.65;98462.13;4955811;28;20150;-60
2021/09/28 03:14:38;;;;;;;5.97;3.47;;;;;;;17.94;87.04;98461.72;4954204;28;20060;-62
2021/09/28 03:17:03;;;;;;;6.88;3.70;;;;;;;17.80;87.30;98470.50;4953921;28;20133;-60
2021/09/28 03:19:38;;;;;;;6.28;4.10;;;;;;;17.70;89.98;98467.63;4956233;28;20102;-63
2021/09/28 03:22:09;;;;;;;6.65;3.80;;;;;;;17.62;91.22;98475.13;4954879;28;20488;-61
2021/09/28 03:24:34;;;;;;;6.25;3.80;;;;;;;17.43;90.96;98471.00;4955350;28;20030;-61
2021/09/28 03:27:00;;;;;;;5.93;3.38;;;;;;;17.62;89.50;98473.34;4953673;28;20108;-61
2021/09/28 03:29:25;;;;;;;6.90;3.60;;;;;;;17.34;90.74;98485.59;4956584;28;20821;-59
2021/09/28 03:31:50;;;;;;;5.07;3.60;;;;;;;17.39;90.77;98481.81;4956270;28;20381;-60
2021/09/28 03:34:24;;;;;;;8.02;2.95;;;;;;;17.12;91.58;98480.78;4955155;28;20121;-62
2021/09/28 03:36:50;;;;;;;5.28;3.25;;;;;;;17.48;89.43;98476.00;4954904;28;20040;-59
2021/09/28 03:39:15;;;;;;;4.78;2.90;;;;;;;17.35;90.94;98483.81;4957151;28;20023;-60
2021/09/28 03:41:40;;;;;;;4.68;3.10;;;;;;;17.40;91.15;98489.66;4955888;28;20039;-60
2021/09/28 03:44:09;;;;;;;6.78;2.40;;;;;;;16.93;91.49;98485.47;4954188;28;20115;-61
2021/09/28 03:46:40;;;;;;;3.67;2.15;;;;;;;16.91;91.70;98484.72;4954010;28;20046;-60
2021/09/28 03:49:09;;;;;;;4.93;2.20;;;;;;;17.00;91.09;98483.28;4954804;28;20026;-61
2021/09/28 03:51:34;;;;;;;3.35;2.00;;;;;;;16.60;91.91;98485.59;4953446;28;20047;-61
2021/09/28 03:53:59;;;;;;;4.38;1.90;;;;;;;16.93;91.76;98485.47;4952088;28;20419;-60
2021/09/28 03:56:25;;;;;;;4.38;2.63;;;;;;;17.63;92.73;98492.69;4937879;28;20682;-62
2021/09/28 03:58:50;;;;;;;4.10;1.70;;;;;;;17.16;90.47;98507.78;4955024;28;20054;-60
2021/09/28 04:01:15;;;;;;;3.38;1.90;;;;;;;17.00;90.92;98507.00;4952827;28;20159;-60
2021/09/28 04:03:42;;;;;;;2.70;1.75;;;;;;;17.08;91.91;98513.53;4954637;28;20091;-61
2021/09/28 04:06:08;;;;;;;5.18;1.90;;;;;;;17.02;90.87;98521.81;4954975;28;20098;-60
2021/09/28 04:08:34;;;;;;;5.78;1.80;;;;;;;17.27;90.43;98525.59;4953517;28;20018;-61
2021/09/28 04:10:59;;;;;;;2.72;1.60;;;;;;;16.83;91.39;98526.44;4952904;28;20043;-61
2021/09/28 04:13:24;;;;;;;3.90;1.25;;;;;;;16.89;89.14;98526.09;4953361;28;20432;-61
2021/09/28 04:15:52;;;;;;;3.22;1.50;;;;;;;16.38;91.01;98521.91;4953886;28;20823;-59
2021/09/28 04:18:17;;;;;;;2.40;1.70;;;;;;;17.18;89.43;98526.16;4955903;28;20112;-58
2021/09/28 04:20:43;;;;;;;7.05;1.90;;;;;;;16.82;88.98;98529.97;4941250;28;20089;-59
2021/09/28 04:23:13;;;;;;;3.05;1.70;;;;;;;16.66;89.88;98527.41;4954053;28;20113;-59
2021/09/28 04:25:42;;;;;;;3.70;1.60;;;;;;;16.52;91.90;98528.16;4955019;28;20093;-58
2021/09/28 04:28:14;;;;;;;3.40;1.63;;;;;;;16.45;93.72;98519.78;4938615;28;20818;-60
2021/09/28 04:30:42;;;;;;;6.40;1.83;;;;;;;16.49;89.12;98516.03;4954370;28;20035;-60
2021/09/28 04:33:13;;;;;;;5.35;1.60;;;;;;;16.82;90.95;98527.34;4953151;28;20037;-61
2021/09/28 04:35:39;;;;;;;3.77;1.60;;;;;;;16.63;88.99;98528.41;4954512;28;20460;-60
2021/09/28 04:38:04;;;;;;;4.40;1.40;;;;;;;16.75;87.62;98530.34;4956332;28;20695;-61
2021/09/28 04:40:30;;;;;;;3.38;1.63;;;;;;;16.97;87.71;98533.56;4951272;28;20070;-59
2021/09/28 04:42:55;;;;;;;2.50;1.50;;;;;;;17.09;85.77;98538.97;4950641;28;20019;-61
2021/09/28 04:45:20;;;;;;;4.65;1.60;;;;;;;16.55;89.13;98538.53;4953547;28;20471;-58
2021/09/28 04:47:46;;;;;;;4.70;1.58;;;;;;;16.77;86.12;98549.53;4953577;28;20762;-58
2021/09/28 04:50:11;;;;;;;2.72;1.50;;;;;;;16.23;87.12;98550.88;4953945;28;20023;-59
2021/09/28 04:52:37;;;;;;;3.63;1.50;;;;;;;16.50;87.98;98553.75;4954246;28;20349;-62
2021/09/28 04:55:04;;;;;;;4.15;1.60;;;;;;;17.09;87.35;98557.41;4954069;28;20033;-59
2021/09/28 04:57:30;;;;;;;2.63;1.70;;;;;;;16.60;86.72;98551.44;4940755;28;20043;-58
2021/09/28 04:59:55;;;;;;;4.72;1.80;;;;;;;16.21;87.03;98561.50;4954076;28;20039;-60
2021/09/28 05:02:20;;;;;;;2.58;1.55;;;;;;;16.74;86.24;98560.28;4951392;28;20070;-60
2021/09/28 05:04:46;;;;;;;4.28;1.40;;;;;;;16.87;86.10;98559.56;4955159;28;20027;-61
2021/09/28 05:07:11;;;;;;;6.30;1.75;;;;;;;16.47;86.47;98567.06;4954588;28;20042;-60
2021/09/28 05:09:37;;;;;;;3.80;1.67;;;;;;;16.04;87.20;98569.47;4957688;28;20061;-61
2021/09/28 05:12:04;;;;;;;4.35;1.73;;;;;;;15.82;86.63;98567.13;4957994;28;20150;-61
2021/09/28 05:14:29;;;;;;;3.10;1.70;;;;;;;16.19;86.55;98563.34;4955348;28;20529;-60
2021/09/28 05:16:55;;;;;;;2.53;1.60;;;;;;;16.46;88.18;98573.28;4955042;28;20027;-60
2021/09/28 05:19:20;;;;;;;5.10;2.10;;;;;;;16.08;85.46;98573.63;4957668;28;20107;-61
2021/09/28 05:21:45;;;;;;;4.65;2.00;;;;;;;16.61;84.69;98580.31;4953782;28;20429;-62
2021/09/28 05:24:11;;;;;;;6.45;1.75;;;;;;;16.52;84.77;98583.47;4956006;28;20065;-60
2021/09/28 05:26:36;;;;;;;3.40;2.03;;;;;;;16.67;85.57;98579.13;4956030;28;20117;-62
2021/09/28 05:29:02;;;;;;;4.20;2.47;;;;;;;15.87;86.04;98578.25;4957636;28;20380;-62
2021/09/28 05:31:28;;;;;;;5.90;2.28;;;;;;;16.37;85.07;98583.38;4956518;28;20386;-63
2021/09/28 05:33:53;;;;;;;4.30;2.20;;;;;;;16.16;85.71;98579.31;4956669;28;20042;-60
2021/09/28 05:36:19;;;;;;;4.43;2.13;;;;;;;16.48;84.94;98589.84;4954699;28;20039;-62
2021/09/28 05:38:44;;;;;;;9.95;2.50;;;;;;;16.43;85.20;98587.50;4955067;28;20222;-61
2021/09/28 05:41:09;;;;;;;3.22;1.90;;;;;;;16.55;86.97;98585.94;4956183;28;20039;-63
2021/09/28 05:43:36;;;;;;;7.35;3.08;;;;;;;16.30;85.29;98591.72;4955526;28;20043;-60
2021/09/28 05:46:04;;;;;;;4.43;2.22;;;;;;;16.44;85.63;98596.22;4957526;28;20039;-60
2021/09/28 05:48:35;;;;;;;7.70;3.08;;;;;;;16.41;84.11;98591.13;4955933;28;20026;-62
2021/09/28 05:51:14;;;;;;;5.85;3.10;;;;;;;15.76;86.40;98591.97;4952677;28;20035;-60
2021/09/28 05:53:39;;;;;;;5.03;3.00;;;;;;;16.37;84.63;98604.44;4933979;28;20467;-60
2021/09/28 05:56:04;;;;;;;5.10;2.90;;;;;;;16.12;85.41;98599.69;4951111;28;20037;-60
2021/09/28 05:58:36;;;;;;;5.40;2.83;;;;;;;16.47;84.59;98603.94;4952968;28;20054;-60
2021/09/28 06:01:19;;;;;;;7.23;3.50;;;;;;;15.94;85.48;98604.16;4953361;28;20046;-62
2021/09/28 06:03:51;;;;;;;5.47;3.10;;;;;;;16.12;84.37;98604.09;4951636;28;20035;-61
2021/09/28 06:08:56;;;;;;;6.75;3.78;;;;;;;16.21;84.79;98614.16;6011242;23;20029;-58
2021/09/28 06:11:22;;;;;;;6.30;3.47;;;;;;;16.43;85.09;98623.47;4957310;28;20069;-60
2021/09/28 06:13:47;;;;;;;7.60;3.85;;;;;;;15.98;84.85;98621.47;4969244;28;20043;-59
2021/09/28 06:16:12;;;;;;;8.40;4.15;;;;;;;15.97;83.13;98622.41;4971558;28;20039;-59
2021/09/28 06:18:38;;;;;;;4.68;3.40;;;;;;;16.64;82.12;98627.56;4971630;28;20022;-58
2021/09/28 06:21:03;;;;;;;7.90;3.92;;;;;;;16.19;83.22;98630.00;4976840;28;20687;-57
2021/09/28 06:23:29;;;;;;;5.38;3.40;;;;;;;16.18;83.52;98630.09;4977742;28;20026;-57
2021/09/28 06:25:54;;;;;;;9.82;3.78;;;;;;;16.37;82.69;98624.66;4979956;28;20038;-63
2021/09/28 06:28:19;;;;;;;4.30;2.60;;;;;;;16.81;81.81;98631.03;4981323;28;20497;-57
2021/09/28 06:30:46;;;;;;;8.80;4.10;;;;;;;15.68;84.72;98621.28;4980441;28;20866;-57
2021/09/28 06:33:11;;;;;;;4.78;3.47;;;;;;;16.56;82.97;98630.63;4980495;28;20038;-58
2021/09/28 06:35:37;;;;;;;5.72;3.55;;;;;;;16.62;82.04;98629.44;4980239;28;20041;-57
2021/09/28 06:38:04;;;;;;;6.28;3.55;;;;;;;16.04;83.86;98632.59;4981073;28;20030;-57
2021/09/28 06:40:29;;;;;;;7.00;3.75;;;;;;;16.26;83.18;98633.16;4979736;28;20667;-56
2021/09/28 06:42:54;;;;;;;8.25;3.55;;;;;;;16.47;81.51;98622.38;4980533;28;20031;-57
2021/09/28 06:45:22;;;;;;;5.90;3.20;;;;;;;16.41;83.06;98612.19;4980775;28;20034;-57
2021/09/28 06:47:47;;;;;;;7.53;3.50;;;;;;;16.40;82.94;98619.25;4980779;28;20023;-57
2021/09/28 06:50:13;;;;;;;7.18;3.58;;;;;;;16.60;82.18;98619.91;4979329;28;20352;-57
2021/09/28 06:52:38;;;;;;;6.05;3.28;;;;;;;16.53;81.13;98627.31;4980559;28;20049;-58
2021/09/28 06:55:04;;;;;;;6.57;3.30;;;;;;;16.95;79.86;98625.88;4980714;28;20143;-58
2021/09/28 06:57:29;;;;;;;5.28;2.92;;;;;;;16.92;79.75;98626.88;4994925;28;20068;-58
2021/09/28 06:59:55;;;;;;;5.00;2.90;;;;;;;16.93;80.71;98628.59;4962763;28;20336;-58
2021/09/28 07:02:20;;;;;;;7.28;3.40;;;;;;;16.52;81.58;98628.25;4980277;28;20490;-58
2021/09/28 07:04:45;;;;;;;7.78;3.70;;;;;;;16.80;79.77;98631.97;4980386;28;20037;-58
2021/09/28 07:07:11;;;;;;;6.22;2.50;;;;;;;17.45;84.43;98639.69;4978169;28;20919;-57
2021/09/28 07:09:36;;;;;;;6.35;3.10;;;;;;;16.95;80.38;98639.06;4979799;28;20505;-58
2021/09/28 07:12:01;;;;;;;5.68;3.00;;;;;;;17.23;78.71;98640.09;4979349;28;20054;-58
2021/09/28 07:14:27;;;;;;;6.43;2.92;;;;;;;17.24;79.29;98639.16;4982001;28;20030;-58
2021/09/28 07:16:52;;;;;;;5.88;2.95;;;;;;;16.62;81.30;98645.25;4981172;28;20073;-60
2021/09/28 07:19:17;;;;;;;5.93;2.83;;;;;;;17.30;78.39;98642.28;4980924;28;20030;-57
2021/09/28 07:21:43;;;;;;;5.13;2.60;;;;;;;17.41;79.49;98641.66;4980647;28;20038;-55
2021/09/28 07:24:09;;;;;;;4.15;2.63;;;;;;;17.20;78.25;98648.19;4980389;28;20113;-57
2021/09/28 07:26:34;;;;;;;7.07;2.70;;;;;;;18.39;74.57;98648.06;4981343;28;20121;-59
2021/09/28 07:29:00;;;;;;;4.30;2.65;;;;;;;17.10;76.81;98645.22;4981004;28;20106;-58
2021/09/28 07:31:25;;;;;;;5.25;2.47;;;;;;;17.86;75.42;98644.31;4995876;28;20100;-58
2021/09/28 07:33:51;;;;;;;5.35;2.47;;;;;;;18.25;73.34;98650.72;4981742;28;20053;-59
2021/09/28 07:36:17;;;;;;;5.85;2.30;;;;;;;17.42;77.21;98653.88;4980447;28;20077;-59
2021/09/28 07:38:43;;;;;;;4.47;2.80;;;;;;;17.33;76.49;98662.34;4981014;28;20065;-59
2021/09/28 07:41:09;;;;;;;3.20;2.42;;;;;;;17.57;77.85;98653.94;4980368;28;20553;-58
2021/09/28 07:43:34;;;;;;;4.25;2.10;;;;;;;18.06;76.78;98657.13;4981442;28;20624;-59
2021/09/28 07:46:00;;;;;;;8.90;2.95;;;;;;;17.85;73.57;98656.66;4980575;28;20568;-58
2021/09/28 07:48:27;;;;;;;3.67;2.13;;;;;;;18.24;74.43;98660.44;4980255;28;20019;-57
2021/09/28 07:50:52;;;;;;;6.50;2.58;;;;;;;18.02;74.00;98660.06;4979598;28;20476;-58
2021/09/28 07:53:18;;;;;;;3.70;2.72;;;;;;;17.40;76.49;98657.56;4963255;28;20524;-59
2021/09/28 07:55:44;;;;;;;4.93;2.28;;;;;;;18.71;74.26;98658.41;4980380;28;20113;-57
2021/09/28 07:58:09;;;;;;;6.43;2.20;;;;;;;18.11;73.30;98659.50;4980669;28;20028;-59
2021/09/28 08:00:38;;;;;;;4.40;2.20;;;;;;;18.77;72.13;98657.16;4980027;28;20389;-58
2021/09/28 08:03:04;;;;;;;3.90;2.33;;;;;;;18.05;72.87;98671.28;4979905;28;20081;-59
2021/09/28 08:05:29;;;;;;;5.25;2.25;;;;;;;18.11;72.79;98678.00;4979561;28;20034;-58
2021/09/28 08:07:54;;;;;;;3.90;2.40;;;;;;;18.52;71.67;98666.63;4980272;28;20018;-57
2021/09/28 08:10:20;;;;;;;5.88;2.30;;;;;;;19.22;70.07;98663.06;4961563;28;20033;-60
2021/09/28 08:12:46;;;;;;;6.07;2.80;;;;;;;18.72;70.27;98664.53;4979276;28;20040;-58
2021/09/28 08:15:12;;;;;;;5.65;2.60;;;;;;;19.82;65.59;98662.56;4978192;28;20986;-58
2021/09/28 08:17:38;;;;;;;4.65;2.20;;;;;;;20.14;66.06;98662.16;4978815;28;20026;-58
2021/09/28 08:20:04;;;;;;;4.60;2.25;;;;;;;20.17;65.21;98661.09;4977565;28;20018;-57
2021/09/28 08:22:30;;;;;;;4.65;2.33;;;;;;;20.52;63.39;98661.25;4978774;28;20018;-57
2021/09/28 08:25:05;;;;;;;5.97;2.10;;;;;;;19.49;64.73;98659.56;4978621;28;20036;-57
2021/09/28 08:30:15;;;;;;;5.80;2.22;;;;;;;19.72;64.14;98650.91;4977666;28;20660;-58
2021/09/28 08:32:40;;;;;;;3.63;1.90;;;;;;;22.19;60.05;98648.91;4978335;28;20015;-59
2021/09/28 08:35:06;;;;;;;4.82;2.33;;;;;;;22.42;57.40;98645.28;4977249;28;20554;-60
2021/09/28 08:37:31;;;;;;;4.45;2.00;;;;;;;24.38;53.35;98643.19;4978778;28;20070;-60
2021/09/28 08:39:57;;;;;;;9.40;2.00;;;;;;;25.41;47.42;98641.16;4975795;28;20030;-60
2021/09/28 08:42:23;;;;;;;5.25;1.50;;;;;;;24.29;51.84;98646.69;4977986;28;20042;-61
2021/09/28 08:44:49;;;;;;;4.22;1.75;;;;;;;23.04;52.24;98645.69;4977536;28;20018;-60
2021/09/28 08:47:14;;;;;;;4.72;1.80;;;;;;;21.75;53.10;98643.44;4976275;28;20097;-59
2021/09/28 08:49:40;;;;;;;5.03;1.98;;;;;;;20.56;57.20;98651.28;4977487;28;20499;-59
2021/09/28 08:52:06;;;;;;;5.53;1.90;;;;;;;21.66;55.38;98652.94;4977857;28;20045;-62
2021/09/28 08:54:33;;;;;;;3.33;1.90;;;;;;;20.81;56.92;98645.09;4977735;28;20092;-61
2021/09/28 08:57:01;;;;;;;4.22;1.65;;;;;;;21.28;57.57;98653.97;4977849;28;20109;-57
2021/09/28 08:59:40;;;;;;;5.90;1.63;;;;;;;20.69;59.37;98645.97;4977452;28;20045;-59
2021/09/28 09:02:09;;;;;;;4.25;2.00;;;;;;;19.95;60.53;98657.28;4976000;28;20038;-58
2021/09/28 09:04:35;;;;;;;3.33;1.95;;;;;;;20.05;60.62;98646.91;4977098;28;20059;-59
2021/09/28 09:07:20;;;;;;;5.97;2.10;;;;;;;22.49;55.54;98653.63;4977505;28;20106;-59
2021/09/28 09:09:46;;;;;;;4.03;1.92;;;;;;;22.92;52.20;98652.84;4977574;28;20030;-58
2021/09/28 09:12:12;;;;;;;4.03;1.90;;;;;;;22.56;52.17;98651.34;4977709;28;20762;-58
2021/09/28 09:14:38;;;;;;;4.10;2.10;;;;;;;22.63;52.82;98649.88;4978578;28;20037;-59
2021/09/28 09:17:04;;;;;;;3.88;1.98;;;;;;;21.17;56.35;98644.19;4976548;28;20381;-59
2021/09/28 09:19:30;;;;;;;3.28;1.60;;;;;;;22.48;54.91;98655.44;4977907;28;20033;-62
2021/09/28 09:21:58;;;;;;;3.85;1.80;;;;;;;21.42;56.47;98644.16;4977144;28;20038;-60
2021/09/28 09:24:42;;;;;;;3.15;2.10;;;;;;;21.27;57.92;98644.34;4978077;28;20117;-60
2021/09/28 09:27:15;;;;;;;5.10;1.98;;;;;;;21.22;58.05;98641.19;4977349;28;20039;-61
2021/09/28 09:29:42;;;;;;;4.07;1.80;;;;;;;22.05;56.31;98636.69;4976389;28;20034;-60
2021/09/28 09:32:08;;;;;;;6.65;1.83;;;;;;;22.80;53.98;98633.38;4978054;28;20519;-61
2021/09/28 09:34:34;;;;;;;3.08;1.90;;;;;;;22.60;52.03;98636.81;4978440;28;20030;-60
2021/09/28 09:37:06;;;;;;;4.20;1.90;;;;;;;23.62;51.51;98637.34;4977459;28;20038;-57
2021/09/28 09:39:45;;;;;;;3.58;1.90;;;;;;;24.27;48.94;98629.13;4977682;28;20027;-57
2021/09/28 09:42:10;;;;;;;3.40;1.60;;;;;;;23.77;51.22;98632.50;4977322;28;20045;-58
2021/09/28 09:44:36;;;;;;;3.20;1.70;;;;;;;23.81;50.19;98633.97;4978364;28;20031;-58
2021/09/28 09:47:01;;;;;;;3.55;1.70;;;;;;;23.31;51.52;98633.75;4977657;28;20038;-60
2021/09/28 09:49:33;;;;;;;3.15;1.75;;;;;;;23.27;51.94;98630.50;4976206;28;20045;-59
2021/09/28 09:52:09;;;;;;;5.85;1.70;;;;;;;22.98;52.95;98632.88;4976806;28;20121;-57
2021/09/28 09:54:41;;;;;;;3.47;1.70;;;;;;;23.11;51.79;98636.22;4977666;28;20041;-59
2021/09/28 09:57:09;;;;;;;3.60;1.60;;;;;;;22.40;53.64;98636.59;4977093;28;20110;-60
2021/09/28 09:59:35;;;;;;;4.43;1.95;;;;;;;21.75;54.70;98633.66;4978056;28;20030;-58
2021/09/28 10:02:03;;;;;;;3.85;1.70;;;;;;;21.46;55.99;98632.38;4984435;28;20065;-57
2021/09/28 10:04:29;;;;;;;3.80;1.73;;;;;;;21.37;57.69;98626.75;4981447;28;20040;-59
2021/09/28 10:06:56;;;;;;;3.08;1.75;;;;;;;20.87;57.43;98623.41;4979377;28;20031;-59
2021/09/28 10:09:31;;;;;;;5.43;1.80;;;;;;;20.10;58.83;98623.59;4981113;28;20098;-60
2021/09/28 10:12:02;;;;;;;2.90;1.70;;;;;;;20.73;58.29;98636.84;4980328;28;20139;-59
2021/09/28 10:14:31;;;;;;;4.25;1.90;;;;;;;21.11;58.23;98633.19;4981371;28;20035;-61
2021/09/28 10:16:59;;;;;;;3.05;1.92;;;;;;;20.45;59.92;98630.84;4980276;28;20903;-61
2021/09/28 10:19:27;;;;;;;5.03;1.75;;;;;;;20.03;59.18;98638.22;4980507;28;20092;-61
2021/09/28 10:21:54;;;;;;;3.50;1.70;;;;;;;21.48;56.40;98625.97;4979735;28;20486;-62
2021/09/28 10:24:28;;;;;;;4.35;1.80;;;;;;;22.39;54.20;98629.59;4963670;28;20038;-59
2021/09/28 10:27:00;;;;;;;4.32;1.70;;;;;;;23.03;50.68;98622.66;4980291;28;20498;-60
2021/09/28 10:29:43;;;;;;;3.45;1.70;;;;;;;24.92;46.31;98617.09;4978673;28;20499;-59
2021/09/28 10:32:21;;;;;;;3.25;1.50;;;;;;;23.82;47.51;98620.53;4980356;28;20137;-58
2021/09/28 10:35:02;;;;;;;7.65;1.70;;;;;;;26.12;45.43;98618.56;4980983;28;20041;-57
2021/09/28 10:37:43;;;;;;;4.32;1.60;;;;;;;24.46;46.53;98621.19;4979987;28;20096;-57
2021/09/28 10:40:36;;;;;;;6.63;2.00;;;;;;;22.33;52.59;98635.38;4979068;28;20026;-58
2021/09/28 10:43:03;;;;;;;3.45;1.85;;;;;;;21.51;53.74;98620.44;4980602;28;20025;-56
2021/09/28 10:45:29;;;;;;;3.42;1.70;;;;;;;20.74;57.37;98620.00;4980631;28;20168;-57
2021/09/28 10:48:07;;;;;;;4.57;1.80;;;;;;;20.54;57.88;98622.22;4980436;28;20030;-56
2021/09/28 10:50:37;;;;;;;4.20;1.60;;;;;;;21.36;56.72;98619.78;4977634;28;20038;-56
2021/09/28 10:53:27;;;;;;;4.05;1.80;;;;;;;21.12;55.89;98616.31;4980757;28;20026;-56
2021/09/28 10:55:56;;;;;;;5.72;1.90;;;;;;;21.12;58.16;98616.31;4972179;28;20035;-58
2021/09/28 10:58:22;;;;;;;3.58;2.00;;;;;;;20.64;57.91;98611.00;4980710;28;20041;-55
2021/09/28 11:00:54;;;;;;;3.90;2.00;;;;;;;20.66;57.30;98614.38;4979599;28;20690;-58
2021/09/28 11:03:44;;;;;;;3.03;1.80;;;;;;;20.12;58.20;98613.75;4980293;28;20488;-57
2021/09/28 11:06:11;;;;;;;4.07;1.88;;;;;;;20.89;55.91;98604.75;4979126;28;20069;-58
2021/09/28 11:08:36;;;;;;;4.53;1.77;;;;;;;20.32;56.23;98603.53;4980055;28;20034;-59
2021/09/28 11:11:11;;;;;;;3.97;2.15;;;;;;;20.10;56.68;98602.41;4977662;28;20057;-58
2021/09/28 11:13:41;;;;;;;3.42;2.08;;;;;;;19.72;57.20;98603.28;4979718;28;20030;-60
2021/09/28 11:16:09;;;;;;;2.75;1.83;;;;;;;21.09;54.62;98595.31;4984429;28;20034;-59
2021/09/28 11:18:38;;;;;;;2.90;2.05;;;;;;;20.28;54.84;98591.47;4980109;28;20038;-60
2021/09/28 11:21:11;;;;;;;2.65;1.80;;;;;;;20.84;54.96;98597.13;4978663;28;20518;-58
2021/09/28 11:23:37;;;;;;;3.58;1.98;;;;;;;21.53;51.90;98591.13;4980142;28;20636;-58
2021/09/28 11:26:04;;;;;;;4.65;1.92;;;;;;;21.24;52.10;98588.00;4979618;28;20039;-57
2021/09/28 11:28:29;;;;;;;3.85;2.22;;;;;;;20.16;53.18;98580.81;4980006;28;20833;-57
2021/09/28 11:31:00;;;;;;;3.30;2.00;;;;;;;20.67;53.79;98586.94;4979606;28;20042;-56
2021/09/28 11:33:27;;;;;;;3.83;2.05;;;;;;;20.02;53.81;98588.88;4978908;28;20030;-58
2021/09/28 11:36:00;;;;;;;3.97;2.10;;;;;;;20.82;52.28;98588.44;4978801;28;20053;-57